Latest Conditions
At L.F.Wade Int. Airport
Recorded at 12:55 am
Partly Cloudy
Temp.: 
18°C/65°F
Humidity: 
64%
Wind: 
NW 20KT
or 23mph
Island Observations
Observations
Saturday, April 25, 2015

Observations are in local time and taken at least once an hour, or upon the start and end of specified events such as showers and thunderstorms.

Time Sky / Weather Wind Speed/Gusts Temp. R.H. Pressure
     knots (mph)  °C (°F)  %  mb / "Hg
 00:55 Partly Cloudy  NW 20/0 (23/0) 18(65) 64 1009 / 29.81
 23:55 Few Clouds  NW 20/0 (23/0) 19(66) 65 1008 / 29.78
 22:55 Few Clouds  WNW 19/0 (22/0) 20(68) 65 1008 / 29.77
 21:55 Few Clouds  WNW 11/0 (13/0) 19(67) 70 1008 / 29.78
 20:55 Few Clouds  WNW 10/0 (12/0) 19(67) 71 1008 / 29.78
 20:30 Partly Cloudy  WNW 11/0 (13/0) 19(66) 70 1008 / 29.78
 19:55 Mostly Cloudy Showers NW 11/0 (13/0) 19(66) 70 1008 / 29.76
 19:27 Mostly Cloudy Showers NW 13/0 (15/0) 19(67) 68 1007 / 29.75
 18:55 Mostly Cloudy Showers NW 12/0 (14/0) 20(67) 64 1008 / 29.76
 17:55 Mostly Cloudy Showers WNW 13/0 (15/0) 20(68) 60 1008 / 29.78
 17:31 Mostly Cloudy Showers WNW 12/0 (14/0) 20(67) 62 1008 / 29.78
 17:15 Mostly Cloudy Showers WNW 12/0 (14/0) 19(67) 68 1008 / 29.78
 17:09 Mostly Cloudy Showers NW 9/0 (10/0) 19(67) 69 1008 / 29.78
 16:55 Mostly Cloudy Showers WNW 9/0 (10/0) 20(67) 72 1009 / 29.79
 15:55 Mostly Cloudy Showers W 9/0 (10/0) 19(66) 78 1009 / 29.81
 14:55 Mostly Cloudy Showers W 10/0 (12/0) 20(68) 66 1010 / 29.82
 14:37 Mostly Cloudy  W 10/0 (12/0) 20(67) 68 1010 / 29.82
 14:16 Overcast Showers WNW 13/0 (15/0) 20(68) 67 1010 / 29.84
 13:55 Mostly Cloudy  W 8/0 (9/0) 20(69) 63 1010 / 29.82
 12:55 Partly Cloudy  NW 13/0 (15/0) 22(71) 62 1011 / 29.85
 11:55 Few Clouds  NW 11/0 (13/0) 21(70) 63 1011 / 29.85
 10:55 Partly Cloudy  NNW 9/0 (10/0) 21(70) 66 1010 / 29.83
 09:55 Few Clouds  N 13/0 (15/0) 21(69) 72 1010 / 29.84
 08:55 Mostly Cloudy  NNW 12/0 (14/0) 20(68) 78 1010 / 29.84
Observations from our AWOS sites are available here (password and username are both 'guest').